createdAt,value
2019-03-21T00:01:27.514Z,3.80
2019-03-21T00:04:00.659Z,3.80
2019-03-21T00:06:31.153Z,3.80
2019-03-21T00:09:01.777Z,3.80
2019-03-21T00:11:59.608Z,3.70
2019-03-21T00:15:05.809Z,3.70
2019-03-21T00:17:42.446Z,3.70
2019-03-21T00:20:14.963Z,3.70
2019-03-21T00:22:45.351Z,3.60
2019-03-21T00:25:18.455Z,3.60
2019-03-21T00:27:49.134Z,3.60
2019-03-21T00:30:20.967Z,3.60
2019-03-21T00:32:51.233Z,3.50
2019-03-21T00:35:21.597Z,3.50
2019-03-21T00:37:52.171Z,3.40
2019-03-21T00:40:28.499Z,3.40
2019-03-21T00:43:00.089Z,3.40
2019-03-21T00:45:30.627Z,3.40
2019-03-21T00:48:02.527Z,3.40
2019-03-21T00:50:32.830Z,3.30
2019-03-21T00:53:03.832Z,3.30
2019-03-21T00:55:35.161Z,3.30
2019-03-21T00:58:05.703Z,3.30
2019-03-21T01:00:39.500Z,3.30
2019-03-21T01:03:10.493Z,3.20
2019-03-21T01:05:41.295Z,3.20
2019-03-21T01:08:11.651Z,3.20
2019-03-21T01:10:43.551Z,3.20
2019-03-21T01:13:14.179Z,3.10
2019-03-21T01:15:44.746Z,3.10
2019-03-21T01:18:14.991Z,3.10
2019-03-21T01:20:46.646Z,3.20
2019-03-21T01:23:16.863Z,3.10
2019-03-21T01:25:51.423Z,3.10
2019-03-21T01:28:22.380Z,3.10
2019-03-21T01:30:52.529Z,3.00
2019-03-21T01:33:22.801Z,3.00
2019-03-21T01:35:54.191Z,3.00
2019-03-21T01:38:24.472Z,3.00
2019-03-21T01:40:54.621Z,3.00
2019-03-21T01:43:25.825Z,3.00
2019-03-21T01:45:56.089Z,3.00
2019-03-21T01:48:26.434Z,3.00
2019-03-21T01:50:56.658Z,3.00
2019-03-21T01:53:26.957Z,3.00
2019-03-21T01:55:57.328Z,2.90
2019-03-21T01:58:27.452Z,2.90
2019-03-21T02:00:59.741Z,2.90
2019-03-21T02:03:29.951Z,2.90
2019-03-21T02:06:00.534Z,2.80
2019-03-21T02:08:30.994Z,2.80
2019-03-21T02:11:01.619Z,2.80
2019-03-21T02:13:32.131Z,2.80
2019-03-21T02:16:02.576Z,2.80
2019-03-21T02:18:33.520Z,2.80
2019-03-21T02:21:03.944Z,2.70
2019-03-21T02:23:34.495Z,2.70
2019-03-21T02:26:04.982Z,2.70
2019-03-21T02:28:36.571Z,2.70
2019-03-21T02:31:06.952Z,2.70
2019-03-21T02:33:37.676Z,2.70
2019-03-21T02:36:08.173Z,2.70
2019-03-21T02:38:38.520Z,2.70
2019-03-21T02:41:09.341Z,2.70
2019-03-21T02:43:39.893Z,2.70
2019-03-21T02:46:10.803Z,2.70
2019-03-21T02:48:40.998Z,2.60
2019-03-21T02:51:11.339Z,2.60
2019-03-21T02:53:41.493Z,2.60
2019-03-21T02:56:13.449Z,2.60
2019-03-21T02:58:43.673Z,2.60
2019-03-21T03:01:13.886Z,2.60
2019-03-21T03:03:44.048Z,2.50
2019-03-21T03:06:14.511Z,2.50
2019-03-21T03:08:44.719Z,2.50
2019-03-21T03:11:15.975Z,2.50
2019-03-21T03:13:47.864Z,2.40
2019-03-21T03:16:19.544Z,2.40
2019-03-21T03:18:49.928Z,2.40
2019-03-21T03:21:20.087Z,2.40
2019-03-21T03:23:50.471Z,2.40
2019-03-21T03:26:21.098Z,2.40
2019-03-21T03:28:51.404Z,2.30
2019-03-21T03:31:21.606Z,2.30
2019-03-21T03:33:52.313Z,2.30
2019-03-21T03:36:22.472Z,2.30
2019-03-21T03:38:53.365Z,2.30
2019-03-21T03:41:23.944Z,2.30
2019-03-21T03:43:54.649Z,2.30
2019-03-21T03:46:25.325Z,2.30
2019-03-21T03:48:59.740Z,2.30
2019-03-21T03:51:29.838Z,2.30
2019-03-21T03:54:01.564Z,2.30
2019-03-21T03:56:31.922Z,2.30
2019-03-21T03:59:02.526Z,2.30
2019-03-21T04:01:32.634Z,2.30
2019-03-21T04:04:02.948Z,2.40
2019-03-21T04:06:33.321Z,2.40
2019-03-21T04:09:04.886Z,2.40
2019-03-21T04:11:35.105Z,2.40
2019-03-21T04:14:05.380Z,2.30
2019-03-21T04:16:35.520Z,2.30
2019-03-21T04:19:05.870Z,2.30
2019-03-21T04:21:36.169Z,2.20
2019-03-21T04:24:06.569Z,2.20
2019-03-21T04:26:37.348Z,2.10
2019-03-21T04:29:07.647Z,2.10
2019-03-21T04:31:38.024Z,2.00
2019-03-21T04:34:09.307Z,2.00
2019-03-21T04:36:39.560Z,2.00
2019-03-21T04:39:10.636Z,2.00
2019-03-21T04:41:41.979Z,2.00
2019-03-21T04:44:14.246Z,2.00
2019-03-21T04:46:44.523Z,2.00
2019-03-21T04:49:14.809Z,2.00
2019-03-21T04:51:45.299Z,1.90
2019-03-21T04:54:15.885Z,2.00
2019-03-21T04:56:46.232Z,2.00
2019-03-21T04:59:16.600Z,2.00
2019-03-21T05:01:47.074Z,1.90
2019-03-21T05:04:21.502Z,1.90
2019-03-21T05:06:52.237Z,2.00
2019-03-21T05:09:22.631Z,2.00
2019-03-21T05:11:52.935Z,2.00
2019-03-21T05:14:23.204Z,1.90
2019-03-21T05:16:53.511Z,1.90
2019-03-21T05:19:23.865Z,1.90
2019-03-21T05:21:54.151Z,1.90
2019-03-21T05:24:24.512Z,1.80
2019-03-21T05:26:54.796Z,1.90
2019-03-21T05:29:25.120Z,1.90
2019-03-21T05:31:55.455Z,1.90
2019-03-21T05:34:25.799Z,1.90
2019-03-21T05:37:14.648Z,1.90
2019-03-21T05:39:45.175Z,2.00
2019-03-21T05:42:19.620Z,2.00
2019-03-21T05:44:49.838Z,2.00
2019-03-21T05:47:20.188Z,2.00
2019-03-21T05:49:51.611Z,2.10
2019-03-21T05:52:22.115Z,2.10
2019-03-21T05:54:52.547Z,2.10
2019-03-21T05:57:22.868Z,2.20
2019-03-21T05:59:53.213Z,2.20
2019-03-21T06:02:23.562Z,2.20
2019-03-21T06:04:53.895Z,2.30
2019-03-21T06:08:08.502Z,2.30
2019-03-21T06:10:39.968Z,2.30
2019-03-21T06:13:10.404Z,2.40
2019-03-21T06:15:41.041Z,2.50
2019-03-21T06:18:36.260Z,2.50
2019-03-21T06:21:15.705Z,2.60
2019-03-21T06:24:23.467Z,2.60
2019-03-21T06:27:17.787Z,2.70
2019-03-21T06:29:48.181Z,2.80
2019-03-21T06:32:18.706Z,2.90
2019-03-21T06:34:49.084Z,2.90
2019-03-21T06:37:19.260Z,3.00
2019-03-21T06:39:50.437Z,3.10
2019-03-21T06:42:20.727Z,3.10
2019-03-21T06:44:51.051Z,3.20
2019-03-21T06:47:21.421Z,3.30
2019-03-21T06:49:52.105Z,3.30
2019-03-21T06:52:22.556Z,3.50
2019-03-21T06:54:52.747Z,3.60
2019-03-21T06:57:23.157Z,3.80
2019-03-21T06:59:53.442Z,3.90
2019-03-21T07:02:24.685Z,4.00
2019-03-21T07:04:55.043Z,4.00
2019-03-21T07:07:25.303Z,4.10
2019-03-21T07:09:55.622Z,4.10
2019-03-21T07:12:25.991Z,4.10
2019-03-21T07:14:56.143Z,4.20
2019-03-21T07:17:26.494Z,4.20
2019-03-21T07:19:56.850Z,4.30
2019-03-21T07:22:27.133Z,4.30
2019-03-21T07:24:57.506Z,4.40
2019-03-21T07:27:27.681Z,4.40
2019-03-21T07:29:58.036Z,4.40
2019-03-21T07:32:33.301Z,4.40
2019-03-21T07:35:00.409Z,4.40
2019-03-21T07:37:30.670Z,4.40
2019-03-21T07:40:00.966Z,4.40
2019-03-21T07:42:31.348Z,4.40
2019-03-21T07:45:01.620Z,4.40
2019-03-21T07:47:31.912Z,4.50
2019-03-21T07:50:02.290Z,4.60
2019-03-21T07:52:32.613Z,4.60
2019-03-21T07:55:02.873Z,4.60
2019-03-21T07:57:33.425Z,4.70
2019-03-21T08:00:03.899Z,4.80
2019-03-21T08:02:34.053Z,4.80
2019-03-21T08:05:04.930Z,4.90
2019-03-21T08:07:35.126Z,5.00
2019-03-21T08:10:06.157Z,5.20
2019-03-21T08:12:36.415Z,5.30
2019-03-21T08:15:07.761Z,5.40
2019-03-21T08:17:38.089Z,5.50
2019-03-21T08:20:10.764Z,5.60
2019-03-21T08:22:41.021Z,5.70
2019-03-21T08:25:11.537Z,5.90
2019-03-21T08:27:41.811Z,6.00
2019-03-21T08:30:26.965Z,6.20
2019-03-21T08:32:57.081Z,6.40
2019-03-21T08:35:27.180Z,6.50
2019-03-21T08:37:57.352Z,6.70
2019-03-21T08:40:27.642Z,6.80
2019-03-21T08:42:57.767Z,6.90
2019-03-21T08:45:27.892Z,6.90
2019-03-21T08:47:58.231Z,7.00
2019-03-21T08:50:28.499Z,7.10
2019-03-21T08:52:58.794Z,7.30
2019-03-21T08:55:29.072Z,7.40
2019-03-21T08:57:59.252Z,7.60
2019-03-21T09:00:34.202Z,7.70
2019-03-21T09:03:01.471Z,7.80
2019-03-21T09:05:31.723Z,8.00
2019-03-21T09:08:01.897Z,8.10
2019-03-21T09:10:50.817Z,8.20
2019-03-21T09:13:21.063Z,8.30
2019-03-21T09:15:52.396Z,8.50
2019-03-21T09:18:22.691Z,8.60
2019-03-21T09:20:52.777Z,8.80
2019-03-21T09:23:22.908Z,9.00
2019-03-21T09:25:53.121Z,9.10
2019-03-21T09:28:23.568Z,9.30
2019-03-21T09:30:53.664Z,9.40
2019-03-21T09:33:23.846Z,9.60
2019-03-21T09:35:54.157Z,9.40
2019-03-21T09:38:24.457Z,9.50
2019-03-21T09:40:54.604Z,9.60
2019-03-21T09:43:26.910Z,9.80
2019-03-21T09:45:57.107Z,10.00
2019-03-21T09:48:27.409Z,10.20
2019-03-21T09:50:57.731Z,10.40
2019-03-21T09:53:27.843Z,10.50
2019-03-21T09:55:58.140Z,10.70
2019-03-21T09:58:28.258Z,10.90
2019-03-21T10:01:00.258Z,10.90
2019-03-21T10:03:30.392Z,11.10
2019-03-21T10:06:00.781Z,11.20
2019-03-21T10:08:32.144Z,11.40
2019-03-21T10:11:02.228Z,11.50
2019-03-21T10:13:32.401Z,11.60
2019-03-21T10:16:03.518Z,11.70
2019-03-21T10:18:33.670Z,11.80
2019-03-21T10:21:03.999Z,11.90
2019-03-21T10:23:34.182Z,11.90
2019-03-21T10:26:04.407Z,11.90
2019-03-21T10:28:34.635Z,12.00
2019-03-21T10:31:04.735Z,12.10
2019-03-21T10:33:34.837Z,12.20
2019-03-21T10:36:05.097Z,12.40
2019-03-21T10:38:36.994Z,12.50
2019-03-21T10:41:08.371Z,12.60
2019-03-21T10:43:39.807Z,12.80
2019-03-21T10:46:10.142Z,13.00
2019-03-21T10:48:58.948Z,13.10
2019-03-21T10:51:30.979Z,13.30
2019-03-21T10:54:01.120Z,13.40
2019-03-21T10:56:31.296Z,13.50
2019-03-21T10:59:01.539Z,13.60
2019-03-21T11:01:31.794Z,13.80
2019-03-21T11:04:01.998Z,13.90
2019-03-21T11:06:32.110Z,14.00
2019-03-21T11:09:02.255Z,14.10
2019-03-21T11:11:32.368Z,14.10
2019-03-21T11:14:02.511Z,14.10
2019-03-21T11:16:32.688Z,14.20
2019-03-21T11:19:02.806Z,14.30
2019-03-21T11:21:32.933Z,14.40
2019-03-21T11:24:03.174Z,14.40
2019-03-21T11:26:33.315Z,14.40
2019-03-21T11:29:03.492Z,14.40
2019-03-21T11:31:33.607Z,14.40
2019-03-21T11:34:03.771Z,14.40
2019-03-21T11:36:38.604Z,14.40
2019-03-21T11:39:08.896Z,14.40
2019-03-21T11:41:39.039Z,14.50
2019-03-21T11:44:09.145Z,14.70
2019-03-21T11:46:39.330Z,14.80
2019-03-21T11:49:09.474Z,14.90
2019-03-21T11:51:39.589Z,15.00
2019-03-21T11:54:09.718Z,15.00
2019-03-21T11:56:39.972Z,15.10
2019-03-21T11:59:10.294Z,15.30
2019-03-21T12:01:40.619Z,15.40
2019-03-21T12:04:10.815Z,15.50
2019-03-21T12:06:42.404Z,15.60
2019-03-21T12:09:12.691Z,15.70
2019-03-21T12:11:42.812Z,15.80
2019-03-21T12:14:13.073Z,15.90
2019-03-21T12:16:43.371Z,16.00
2019-03-21T12:19:13.491Z,16.10
2019-03-21T12:21:43.728Z,16.10
2019-03-21T12:24:15.187Z,16.20
2019-03-21T12:26:45.546Z,16.40
2019-03-21T12:29:16.714Z,16.60
2019-03-21T12:31:47.980Z,16.70
2019-03-21T12:34:18.238Z,16.80
2019-03-21T12:36:48.501Z,16.90
2019-03-21T12:39:18.621Z,17.00
2019-03-21T12:41:48.738Z,17.00
2019-03-21T12:44:18.921Z,17.10
2019-03-21T12:46:49.215Z,17.20
2019-03-21T12:49:19.511Z,17.40
2019-03-21T12:51:49.625Z,17.60
2019-03-21T12:54:19.962Z,17.80
2019-03-21T12:56:52.873Z,18.00
2019-03-21T12:59:21.985Z,18.20
2019-03-21T13:01:52.239Z,18.30
2019-03-21T13:04:22.493Z,18.40
2019-03-21T13:06:52.632Z,18.40
2019-03-21T13:09:22.960Z,18.60
2019-03-21T13:11:53.240Z,18.80
2019-03-21T13:14:23.375Z,18.90
2019-03-21T13:16:54.488Z,19.00
2019-03-21T13:19:24.628Z,19.10
2019-03-21T13:21:54.744Z,19.20
2019-03-21T13:24:24.876Z,19.30
2019-03-21T13:26:55.001Z,19.50
2019-03-21T13:29:25.306Z,19.60
2019-03-21T13:31:55.609Z,19.80
2019-03-21T13:34:44.449Z,20.00
2019-03-21T13:37:15.525Z,20.10
2019-03-21T13:40:04.484Z,20.30
2019-03-21T13:42:46.065Z,20.40
2019-03-21T13:45:16.248Z,20.50
2019-03-21T13:47:46.525Z,20.60
2019-03-21T13:50:18.961Z,20.70
2019-03-21T13:52:49.231Z,20.90
2019-03-21T13:55:19.338Z,21.00
2019-03-21T13:57:49.473Z,21.10
2019-03-21T14:00:21.336Z,21.20
2019-03-21T14:02:51.603Z,21.40
2019-03-21T14:05:21.871Z,21.50
2019-03-21T14:07:52.015Z,21.60
2019-03-21T14:10:22.115Z,21.80
2019-03-21T14:12:52.271Z,21.90
2019-03-21T14:15:22.657Z,22.00
2019-03-21T14:17:52.993Z,22.20
2019-03-21T14:20:23.213Z,22.30
2019-03-21T14:22:53.329Z,22.30
2019-03-21T14:25:23.779Z,22.40
2019-03-21T14:27:53.867Z,22.50
2019-03-21T14:30:24.003Z,22.60
2019-03-21T14:32:54.139Z,22.50
2019-03-21T14:35:24.205Z,22.40
2019-03-21T14:37:54.483Z,22.60
2019-03-21T14:40:24.571Z,22.70
2019-03-21T14:42:54.808Z,23.00
2019-03-21T14:45:24.915Z,23.10
2019-03-21T14:47:55.018Z,23.20
2019-03-21T14:50:25.170Z,23.20
2019-03-21T14:52:55.279Z,23.40
2019-03-21T14:55:25.382Z,23.60
2019-03-21T14:57:55.491Z,23.70
2019-03-21T15:00:25.673Z,23.80
2019-03-21T15:02:58.632Z,23.90
2019-03-21T15:05:28.788Z,24.10
2019-03-21T15:07:59.084Z,24.20
2019-03-21T15:10:29.170Z,24.20
2019-03-21T15:12:59.341Z,24.30
2019-03-21T15:15:48.165Z,24.30
2019-03-21T15:18:18.460Z,24.50
2019-03-21T15:20:48.722Z,24.70
2019-03-21T15:23:18.938Z,25.00
2019-03-21T15:25:49.168Z,25.40
2019-03-21T15:28:19.595Z,25.60
2019-03-21T15:30:49.717Z,26.10
2019-03-21T15:33:19.841Z,26.20
2019-03-21T15:35:50.039Z,26.70
2019-03-21T15:38:20.211Z,26.70
2019-03-21T15:40:50.460Z,26.40
2019-03-21T15:43:20.615Z,25.60
2019-03-21T15:45:50.698Z,24.30
2019-03-21T15:48:21.166Z,23.10
2019-03-21T15:51:03.533Z,22.10
2019-03-21T15:53:23.531Z,21.20
2019-03-21T15:55:53.675Z,20.40
2019-03-21T15:58:23.756Z,19.80
2019-03-21T16:00:58.443Z,19.10
2019-03-21T16:03:39.505Z,18.60
2019-03-21T16:06:09.774Z,18.10
2019-03-21T16:08:39.908Z,17.70
2019-03-21T16:11:10.063Z,17.30
2019-03-21T16:13:40.168Z,17.00
2019-03-21T16:16:10.273Z,16.80
2019-03-21T16:18:40.452Z,16.60
2019-03-21T16:21:10.720Z,16.30
2019-03-21T16:23:40.830Z,16.10
2019-03-21T16:26:10.972Z,15.90
2019-03-21T16:28:41.073Z,15.80
2019-03-21T16:31:11.226Z,15.60
2019-03-21T16:33:43.432Z,15.40
2019-03-21T16:36:13.085Z,15.30
2019-03-21T16:38:43.221Z,15.10
2019-03-21T16:41:13.339Z,15.10
2019-03-21T16:43:43.533Z,14.90
2019-03-21T16:46:13.751Z,14.80
2019-03-21T16:48:43.913Z,14.70
2019-03-21T16:51:14.030Z,14.60
2019-03-21T16:53:44.151Z,14.60
2019-03-21T16:56:14.352Z,14.50
2019-03-21T16:58:44.480Z,14.40
2019-03-21T17:01:14.586Z,14.30
2019-03-21T17:03:44.704Z,14.20
2019-03-21T17:06:14.856Z,14.20
2019-03-21T17:08:45.035Z,14.10
2019-03-21T17:11:15.175Z,14.00
2019-03-21T17:13:45.289Z,13.90
2019-03-21T17:16:15.527Z,13.80
2019-03-21T17:18:45.652Z,13.70
2019-03-21T17:21:15.786Z,13.70
2019-03-21T17:23:45.904Z,13.60
2019-03-21T17:26:16.142Z,13.50
2019-03-21T17:28:46.280Z,13.40
2019-03-21T17:31:16.431Z,13.40
2019-03-21T17:33:46.558Z,13.30
2019-03-21T17:36:16.700Z,13.30
2019-03-21T17:38:46.921Z,13.20
2019-03-21T17:41:17.413Z,13.10
2019-03-21T17:43:47.620Z,13.10
2019-03-21T17:46:17.769Z,13.00
2019-03-21T17:48:47.878Z,13.00
2019-03-21T17:51:18.132Z,12.90
2019-03-21T17:53:48.240Z,12.80
2019-03-21T17:56:18.357Z,12.70
2019-03-21T17:58:48.674Z,12.60
2019-03-21T18:01:19.163Z,12.60
2019-03-21T18:03:51.200Z,12.50
2019-03-21T18:06:32.316Z,12.40
2019-03-21T18:09:04.453Z,12.30
2019-03-21T18:11:34.890Z,12.20
2019-03-21T18:14:05.284Z,12.20
2019-03-21T18:16:37.230Z,12.20
2019-03-21T18:19:08.611Z,12.10
2019-03-21T18:21:38.939Z,12.10
2019-03-21T18:24:09.335Z,12.00
2019-03-21T18:26:41.023Z,11.90
2019-03-21T18:29:11.560Z,11.90
2019-03-21T18:31:42.110Z,11.90
2019-03-21T18:34:12.357Z,11.80
2019-03-21T18:36:44.692Z,11.80
2019-03-21T18:39:18.376Z,11.80
2019-03-21T18:41:48.927Z,11.70
2019-03-21T18:44:19.168Z,11.60
2019-03-21T18:46:50.457Z,11.60
2019-03-21T18:49:20.902Z,11.50
2019-03-21T18:51:51.375Z,11.40
2019-03-21T18:54:21.678Z,11.40
2019-03-21T18:56:54.491Z,11.30
2019-03-21T18:59:25.884Z,11.30
2019-03-21T19:01:58.950Z,11.20
2019-03-21T19:04:32.839Z,11.10
2019-03-21T19:07:03.377Z,11.10
2019-03-21T19:09:33.811Z,11.00
2019-03-21T19:12:04.097Z,10.90
2019-03-21T19:14:34.348Z,10.90
2019-03-21T19:17:06.888Z,10.80
2019-03-21T19:19:37.167Z,10.70
2019-03-21T19:22:08.912Z,10.70
2019-03-21T19:24:39.169Z,10.60
2019-03-21T19:27:09.458Z,10.50
2019-03-21T19:29:39.604Z,10.50
2019-03-21T19:32:09.800Z,10.40
2019-03-21T19:34:39.932Z,10.40
2019-03-21T19:37:10.139Z,10.30
2019-03-21T19:39:40.356Z,10.30
2019-03-21T19:42:10.522Z,10.20
2019-03-21T19:44:41.417Z,10.20
2019-03-21T19:47:22.782Z,10.10
2019-03-21T19:49:43.496Z,10.10
2019-03-21T19:52:13.627Z,10.00
2019-03-21T19:54:43.816Z,10.00
2019-03-21T19:57:14.277Z,10.00
2019-03-21T19:59:44.489Z,9.90
2019-03-21T20:02:15.680Z,9.80
2019-03-21T20:04:48.282Z,9.70
2019-03-21T20:07:17.902Z,9.70
2019-03-21T20:09:48.134Z,9.60
2019-03-21T20:12:18.357Z,9.60
2019-03-21T20:14:48.495Z,9.50
2019-03-21T20:17:22.065Z,9.40
2019-03-21T20:19:53.353Z,9.40
2019-03-21T20:22:23.986Z,9.30
2019-03-21T20:24:54.308Z,9.30
2019-03-21T20:27:24.431Z,9.20
2019-03-21T20:29:55.839Z,9.20
2019-03-21T20:32:27.348Z,9.10
2019-03-21T20:34:57.423Z,9.10
2019-03-21T20:37:27.857Z,9.00
2019-03-21T20:39:58.143Z,9.00
2019-03-21T20:42:28.433Z,9.00
2019-03-21T20:44:58.800Z,8.90
2019-03-21T20:47:29.669Z,8.90
2019-03-21T20:50:00.065Z,8.90
2019-03-21T20:52:30.338Z,8.80
2019-03-21T20:55:00.522Z,8.80
2019-03-21T20:57:30.535Z,8.80
2019-03-21T21:00:00.701Z,8.70
2019-03-21T21:02:30.908Z,8.70
2019-03-21T21:05:01.301Z,8.70
2019-03-21T21:07:31.486Z,8.70
2019-03-21T21:10:02.111Z,8.70
2019-03-21T21:12:32.481Z,8.70
2019-03-21T21:15:02.665Z,8.70
2019-03-21T21:17:32.976Z,8.60
2019-03-21T21:20:03.292Z,8.60
2019-03-21T21:22:33.386Z,8.60
2019-03-21T21:25:03.952Z,8.60
2019-03-21T21:27:34.259Z,8.50
2019-03-21T21:30:05.733Z,8.50
2019-03-21T21:32:36.144Z,8.50
2019-03-21T21:35:07.821Z,8.40
2019-03-21T21:37:38.789Z,8.40
2019-03-21T21:40:09.851Z,8.30
2019-03-21T21:42:39.967Z,8.30
2019-03-21T21:45:10.557Z,8.30
2019-03-21T21:47:40.873Z,8.30
2019-03-21T21:50:11.791Z,8.30
2019-03-21T21:52:42.511Z,8.30
2019-03-21T21:55:13.041Z,8.20
2019-03-21T21:57:43.256Z,8.20
2019-03-21T22:00:15.657Z,8.20
2019-03-21T22:02:45.920Z,8.10
2019-03-21T22:05:16.189Z,8.10
2019-03-21T22:07:46.791Z,8.10
2019-03-21T22:10:17.047Z,8.10
2019-03-21T22:12:47.239Z,8.00
2019-03-21T22:15:18.143Z,8.00
2019-03-21T22:17:48.556Z,7.90
2019-03-21T22:20:18.955Z,7.90
2019-03-21T22:22:49.255Z,7.80
2019-03-21T22:25:19.374Z,7.80
2019-03-21T22:27:49.534Z,7.80
2019-03-21T22:30:20.208Z,7.70
2019-03-21T22:32:50.483Z,7.70
2019-03-21T22:35:23.748Z,7.70
2019-03-21T22:37:53.853Z,7.60
2019-03-21T22:40:24.008Z,7.60
2019-03-21T22:42:54.154Z,7.60
2019-03-21T22:45:24.453Z,7.60
2019-03-21T22:47:54.608Z,7.50
2019-03-21T22:50:24.914Z,7.50
2019-03-21T22:52:55.307Z,7.50
2019-03-21T22:55:25.544Z,7.50
2019-03-21T22:57:55.648Z,7.40
2019-03-21T23:00:34.868Z,7.40
2019-03-21T23:03:05.325Z,7.30
2019-03-21T23:05:35.423Z,7.30
2019-03-21T23:08:05.608Z,7.20
2019-03-21T23:10:35.963Z,7.20
2019-03-21T23:13:06.218Z,7.20
2019-03-21T23:15:36.327Z,7.10
2019-03-21T23:18:06.759Z,7.10
2019-03-21T23:20:36.999Z,7.00
2019-03-21T23:23:07.315Z,7.00
2019-03-21T23:25:37.400Z,7.00
2019-03-21T23:28:07.559Z,7.00
2019-03-21T23:30:37.849Z,6.90
2019-03-21T23:33:09.021Z,6.90
2019-03-21T23:35:39.147Z,6.90
2019-03-21T23:38:09.439Z,6.90
2019-03-21T23:40:39.643Z,6.80
2019-03-21T23:43:09.867Z,6.80
2019-03-21T23:45:39.993Z,6.80
2019-03-21T23:48:10.185Z,6.70
2019-03-21T23:50:40.556Z,6.70
2019-03-21T23:53:10.760Z,6.70
2019-03-21T23:55:40.932Z,6.70
2019-03-21T23:58:11.202Z,6.60
